createdAt,value
2022-09-14T00:01:36.592Z,9.88
2022-09-14T00:04:06.816Z,10.75
2022-09-14T00:06:35.224Z,8.80
2022-09-14T00:09:03.641Z,9.15
2022-09-14T00:11:34.527Z,9.48
2022-09-14T00:14:03.838Z,11.00
2022-09-14T00:16:33.860Z,10.15
2022-09-14T00:19:06.250Z,8.85
2022-09-14T00:21:35.830Z,10.25
2022-09-14T00:24:04.190Z,10.40
2022-09-14T00:26:33.796Z,8.85
2022-09-14T00:29:04.812Z,10.07
2022-09-14T00:31:34.795Z,9.55
2022-09-14T00:34:03.796Z,8.48
2022-09-14T00:36:33.553Z,8.95
2022-09-14T00:39:01.697Z,8.52
2022-09-14T00:41:31.862Z,9.80
2022-09-14T00:44:03.376Z,9.75
2022-09-14T00:46:33.657Z,7.80
2022-09-14T00:49:03.442Z,8.77
2022-09-14T00:51:33.270Z,9.75
2022-09-14T00:54:03.251Z,8.55
2022-09-14T00:56:31.613Z,10.00
2022-09-14T00:59:06.595Z,9.43
2022-09-14T01:01:34.869Z,9.68
2022-09-14T01:04:03.826Z,11.15
2022-09-14T01:06:37.760Z,9.73
2022-09-14T01:09:20.107Z,9.20
2022-09-14T01:12:10.320Z,9.38
2022-09-14T01:14:48.805Z,8.93
2022-09-14T01:17:22.712Z,9.55
2022-09-14T01:20:08.956Z,9.75
2022-09-14T01:22:41.175Z,8.75
2022-09-14T01:25:34.779Z,9.63
2022-09-14T01:28:06.801Z,10.25
2022-09-14T01:30:37.045Z,10.32
2022-09-14T01:33:10.240Z,9.95
2022-09-14T01:35:44.640Z,9.20
2022-09-14T01:38:18.535Z,10.35
2022-09-14T01:40:49.257Z,10.65
2022-09-14T01:43:23.619Z,9.38
2022-09-14T01:45:55.228Z,9.40
2022-09-14T01:48:29.298Z,10.48
2022-09-14T01:50:59.447Z,8.43
2022-09-14T01:53:37.794Z,9.90
2022-09-14T01:56:11.722Z,8.18
2022-09-14T01:58:46.042Z,9.55
2022-09-14T02:01:21.472Z,9.52
2022-09-14T02:03:54.539Z,10.98
2022-09-14T02:06:28.450Z,7.88
2022-09-14T02:08:56.789Z,9.88
2022-09-14T02:11:24.802Z,9.40
2022-09-14T02:13:54.384Z,8.35
2022-09-14T02:16:24.457Z,9.23
2022-09-14T02:18:52.655Z,8.52
2022-09-14T02:21:23.955Z,9.10
2022-09-14T02:23:52.491Z,9.57
2022-09-14T02:26:22.272Z,8.70
2022-09-14T02:28:50.863Z,10.13
2022-09-14T02:31:28.531Z,9.48
2022-09-14T02:34:06.489Z,10.15
2022-09-14T02:36:42.999Z,8.57
2022-09-14T02:39:18.758Z,9.18
2022-09-14T02:41:52.012Z,8.63
2022-09-14T02:44:24.819Z,9.40
2022-09-14T02:47:01.459Z,8.77
2022-09-14T02:49:38.930Z,8.70
2022-09-14T02:52:13.315Z,10.30
2022-09-14T02:54:49.501Z,10.25
2022-09-14T02:57:17.587Z,8.52
2022-09-14T02:59:45.674Z,9.80
2022-09-14T03:02:15.352Z,8.85
2022-09-14T03:04:43.399Z,9.57
2022-09-14T03:07:14.112Z,9.32
2022-09-14T03:09:42.082Z,7.93
2022-09-14T03:12:10.118Z,8.52
2022-09-14T03:14:38.071Z,8.20
2022-09-14T03:17:06.451Z,8.02
2022-09-14T03:19:35.797Z,8.93
2022-09-14T03:22:03.901Z,10.25
2022-09-14T03:24:32.459Z,9.05
2022-09-14T03:27:00.541Z,9.90
2022-09-14T03:29:28.593Z,9.23
2022-09-14T03:31:56.603Z,8.30
2022-09-14T03:34:24.887Z,8.80
2022-09-14T03:36:54.252Z,8.05
2022-09-14T03:39:23.122Z,8.20
2022-09-14T03:41:51.159Z,8.88
2022-09-14T03:44:19.443Z,7.78
2022-09-14T03:46:47.534Z,8.80
2022-09-14T03:49:16.148Z,8.20
2022-09-14T03:51:44.139Z,8.95
2022-09-14T03:54:13.512Z,8.50
2022-09-14T03:56:41.795Z,8.73
2022-09-14T03:59:10.279Z,8.13
2022-09-14T04:01:39.202Z,7.88
2022-09-14T04:04:07.915Z,8.13
2022-09-14T04:06:35.892Z,8.63
2022-09-14T04:09:04.844Z,9.27
2022-09-14T04:11:34.839Z,8.85
2022-09-14T04:14:04.443Z,8.30
2022-09-14T04:16:33.017Z,8.43
2022-09-14T04:19:01.163Z,8.48
2022-09-14T04:21:29.426Z,9.63
2022-09-14T04:24:16.018Z,8.90
2022-09-14T04:26:46.927Z,8.70
2022-09-14T04:29:15.174Z,8.43
2022-09-14T04:31:43.370Z,8.68
2022-09-14T04:34:13.690Z,9.20
2022-09-14T04:36:41.919Z,10.35
2022-09-14T04:39:13.659Z,9.15
2022-09-14T04:41:41.923Z,10.00
2022-09-14T04:44:11.356Z,9.85
2022-09-14T04:46:46.119Z,10.43
2022-09-14T04:49:16.572Z,9.00
2022-09-14T04:51:44.867Z,11.63
2022-09-14T04:54:16.939Z,9.82
2022-09-14T04:56:46.050Z,9.30
2022-09-14T04:59:16.401Z,9.15
2022-09-14T05:01:47.592Z,10.57
2022-09-14T05:04:16.053Z,9.75
2022-09-14T05:06:45.864Z,10.32
2022-09-14T05:09:16.242Z,10.18
2022-09-14T05:11:44.585Z,10.57
2022-09-14T05:14:15.005Z,10.45
2022-09-14T05:16:44.793Z,10.75
2022-09-14T05:19:15.169Z,11.55
2022-09-14T05:21:43.543Z,12.05
2022-09-14T05:24:15.492Z,10.43
2022-09-14T05:26:44.371Z,11.98
2022-09-14T05:29:16.028Z,11.57
2022-09-14T05:31:44.274Z,11.35
2022-09-14T05:34:13.200Z,10.85
2022-09-14T05:36:41.647Z,9.98
2022-09-14T05:39:10.123Z,9.23
2022-09-14T05:41:38.585Z,10.00
2022-09-14T05:44:07.051Z,9.70
2022-09-14T05:46:36.590Z,10.38
2022-09-14T05:49:04.664Z,11.02
2022-09-14T05:51:32.716Z,10.18
2022-09-14T05:54:00.962Z,11.05
2022-09-14T05:56:31.768Z,10.68
2022-09-14T05:59:00.363Z,10.02
2022-09-14T06:01:30.298Z,10.88
2022-09-14T06:04:02.188Z,10.05
2022-09-14T06:06:31.787Z,10.30
2022-09-14T06:09:00.108Z,9.65
2022-09-14T06:11:30.121Z,10.98
2022-09-14T06:13:58.789Z,10.65
2022-09-14T06:16:28.795Z,10.30
2022-09-14T06:18:59.443Z,10.48
2022-09-14T06:21:31.488Z,10.45
2022-09-14T06:23:59.496Z,9.98
2022-09-14T06:26:27.959Z,9.77
2022-09-14T06:28:55.987Z,8.73
2022-09-14T06:31:25.274Z,10.50
2022-09-14T06:33:53.972Z,9.80
2022-09-14T06:36:24.937Z,9.85
2022-09-14T06:38:53.625Z,10.27
2022-09-14T06:41:23.942Z,9.30
2022-09-14T06:43:52.321Z,10.40
2022-09-14T06:46:22.109Z,10.07
2022-09-14T06:48:52.867Z,9.68
2022-09-14T06:51:24.234Z,10.07
2022-09-14T06:53:53.902Z,9.80
2022-09-14T06:56:22.556Z,9.98
2022-09-14T06:58:52.207Z,10.75
2022-09-14T07:01:21.066Z,9.40
2022-09-14T07:03:51.469Z,8.65
2022-09-14T07:06:21.053Z,9.80
2022-09-14T07:08:51.523Z,8.38
2022-09-14T07:11:21.969Z,8.60
2022-09-14T07:13:50.585Z,10.57
2022-09-14T07:16:18.883Z,9.88
2022-09-14T07:18:47.148Z,9.57
2022-09-14T07:21:17.310Z,9.52
2022-09-14T07:23:46.697Z,8.73
2022-09-14T07:26:17.982Z,9.60
2022-09-14T07:28:48.733Z,9.18
2022-09-14T07:31:19.751Z,8.82
2022-09-14T07:33:48.099Z,9.10
2022-09-14T07:36:16.638Z,9.63
2022-09-14T07:38:53.108Z,9.30
2022-09-14T07:41:24.218Z,8.98
2022-09-14T07:43:53.627Z,9.93
2022-09-14T07:46:22.130Z,9.75
2022-09-14T07:48:55.181Z,9.73
2022-09-14T07:51:23.761Z,10.30
2022-09-14T07:53:52.227Z,11.48
2022-09-14T07:56:20.556Z,9.55
2022-09-14T07:58:54.871Z,10.73
2022-09-14T08:01:29.891Z,10.65
2022-09-14T08:04:02.314Z,10.88
2022-09-14T08:06:33.371Z,11.02
2022-09-14T08:09:01.812Z,9.65
2022-09-14T08:11:32.141Z,10.32
2022-09-14T08:14:03.228Z,9.88
2022-09-14T08:16:32.824Z,10.00
2022-09-14T08:19:02.120Z,9.05
2022-09-14T08:21:31.997Z,10.73
2022-09-14T08:24:02.460Z,10.63
2022-09-14T08:26:30.933Z,9.93
2022-09-14T08:29:00.626Z,10.85
2022-09-14T08:31:30.459Z,10.50
2022-09-14T08:34:00.183Z,10.35
2022-09-14T08:36:31.176Z,10.02
2022-09-14T08:38:59.236Z,10.70
2022-09-14T08:41:30.455Z,10.63
2022-09-14T08:44:03.214Z,9.55
2022-09-14T08:46:37.311Z,9.70
2022-09-14T08:49:15.120Z,10.32
2022-09-14T08:51:43.280Z,8.98
2022-09-14T08:54:11.864Z,10.30
2022-09-14T08:56:44.658Z,10.75
2022-09-14T08:59:44.598Z,11.02
2022-09-14T09:02:30.620Z,10.88
2022-09-14T09:05:06.080Z,9.23
2022-09-14T09:07:40.056Z,10.07
2022-09-14T09:10:10.711Z,9.57
2022-09-14T09:12:40.740Z,10.65
2022-09-14T09:15:22.314Z,10.87
2022-09-14T09:17:55.952Z,10.98
2022-09-14T09:20:29.026Z,11.25
2022-09-14T09:23:07.959Z,12.32
2022-09-14T09:25:56.407Z,11.02
2022-09-14T09:28:26.414Z,11.02
2022-09-14T09:30:55.166Z,10.32
2022-09-14T09:33:26.076Z,22.67
2022-09-14T09:35:55.775Z,14.10
2022-09-14T09:38:25.762Z,12.73
2022-09-14T09:40:56.916Z,19.80
2022-09-14T09:43:45.802Z,11.27
2022-09-14T09:46:13.497Z,11.83
2022-09-14T09:48:45.870Z,13.00
2022-09-14T09:51:15.556Z,12.13
2022-09-14T09:53:50.367Z,12.93
2022-09-14T09:56:21.328Z,11.68
2022-09-14T09:58:51.688Z,11.73
2022-09-14T10:01:24.075Z,13.20
2022-09-14T10:04:06.550Z,11.53
2022-09-14T10:06:43.378Z,13.55
2022-09-14T10:09:16.886Z,12.77
2022-09-14T10:11:46.693Z,13.03
2022-09-14T10:14:25.292Z,12.27
2022-09-14T10:16:53.706Z,13.27
2022-09-14T10:19:28.076Z,13.57
2022-09-14T10:22:20.944Z,16.10
2022-09-14T10:24:59.425Z,12.17
2022-09-14T10:27:42.496Z,13.18
2022-09-14T10:30:19.372Z,12.98
2022-09-14T10:32:54.622Z,13.47
2022-09-14T10:35:29.349Z,13.27
2022-09-14T10:38:12.009Z,14.33
2022-09-14T10:40:43.776Z,14.52
2022-09-14T10:43:16.704Z,14.88
2022-09-14T10:45:52.840Z,13.73
2022-09-14T10:48:43.860Z,12.68
2022-09-14T10:51:39.288Z,12.10
2022-09-14T10:54:20.488Z,11.37
2022-09-14T10:57:03.815Z,12.13
2022-09-14T10:59:37.041Z,13.17
2022-09-14T11:02:30.927Z,13.15
2022-09-14T11:05:12.869Z,12.85
2022-09-14T11:07:52.938Z,13.48
2022-09-14T11:10:29.132Z,12.83
2022-09-14T11:13:20.004Z,13.60
2022-09-14T11:15:54.057Z,13.20
2022-09-14T11:18:31.715Z,13.43
2022-09-14T11:21:10.242Z,14.33
2022-09-14T11:23:49.548Z,13.67
2022-09-14T11:26:24.297Z,14.57
2022-09-14T11:28:56.136Z,14.98
2022-09-14T11:31:29.571Z,12.43
2022-09-14T11:34:03.974Z,15.97
2022-09-14T11:36:37.342Z,14.38
2022-09-14T11:39:16.000Z,13.13
2022-09-14T11:41:50.548Z,12.50
2022-09-14T11:44:23.444Z,13.63
2022-09-14T11:47:00.510Z,13.38
2022-09-14T11:49:35.135Z,13.70
2022-09-14T11:52:12.401Z,13.97
2022-09-14T11:54:46.700Z,15.23
2022-09-14T11:57:18.953Z,14.93
2022-09-14T11:59:52.677Z,16.03
2022-09-14T12:03:02.098Z,15.63
2022-09-14T12:05:35.809Z,15.48
2022-09-14T12:08:24.447Z,15.93
2022-09-14T12:11:31.536Z,15.57
2022-09-14T12:14:30.447Z,15.48
2022-09-14T12:17:38.286Z,16.15
2022-09-14T12:20:30.055Z,15.57
2022-09-14T12:23:15.051Z,16.73
2022-09-14T12:25:56.391Z,16.50
2022-09-14T12:28:39.840Z,16.67
2022-09-14T12:31:13.715Z,15.70
2022-09-14T12:34:27.565Z,15.07
2022-09-14T12:37:28.212Z,12.95
2022-09-14T12:40:36.170Z,14.07
2022-09-14T12:43:47.918Z,13.77
2022-09-14T12:46:40.294Z,14.00
2022-09-14T12:49:30.369Z,16.58
2022-09-14T12:52:01.830Z,16.57
2022-09-14T12:54:43.099Z,16.67
2022-09-14T12:57:24.489Z,16.52
2022-09-14T13:00:01.957Z,16.10
2022-09-14T13:02:54.207Z,14.35
2022-09-14T13:05:25.517Z,15.02
2022-09-14T13:07:54.627Z,13.80
2022-09-14T13:10:28.758Z,14.18
2022-09-14T13:12:57.687Z,14.13
2022-09-14T13:15:28.058Z,15.07
2022-09-14T13:18:03.498Z,14.80
2022-09-14T13:20:33.433Z,13.80
2022-09-14T13:23:01.992Z,13.98
2022-09-14T13:25:34.421Z,13.25
2022-09-14T13:28:04.689Z,13.77
2022-09-14T13:30:34.275Z,14.75
2022-09-14T13:33:05.897Z,14.60
2022-09-14T13:35:36.729Z,13.87
2022-09-14T13:38:09.598Z,15.82
2022-09-14T13:40:38.109Z,15.07
2022-09-14T13:43:06.430Z,14.30
2022-09-14T13:45:35.105Z,13.68
2022-09-14T13:48:06.312Z,14.75
2022-09-14T13:50:35.353Z,16.20
2022-09-14T13:53:04.319Z,14.93
2022-09-14T13:55:44.746Z,15.90
2022-09-14T13:58:16.871Z,15.80
2022-09-14T14:00:57.251Z,15.30
2022-09-14T14:03:35.475Z,14.02
2022-09-14T14:06:19.456Z,13.77
2022-09-14T14:08:54.920Z,15.55
2022-09-14T14:11:34.140Z,15.82
2022-09-14T14:14:13.560Z,14.00
2022-09-14T14:16:42.041Z,16.88
2022-09-14T14:19:30.280Z,15.90
2022-09-14T14:22:18.957Z,15.45
2022-09-14T14:27:38.195Z,14.25
2022-09-14T14:30:15.618Z,14.60
2022-09-14T14:32:43.695Z,15.20
2022-09-14T14:35:19.971Z,15.90
2022-09-14T14:37:48.858Z,15.65
2022-09-14T14:40:18.686Z,15.07
2022-09-14T14:42:47.833Z,15.77
2022-09-14T14:45:19.179Z,17.13
2022-09-14T14:47:47.901Z,15.77
2022-09-14T14:50:18.960Z,16.45
2022-09-14T14:52:47.363Z,16.83
2022-09-14T14:55:15.725Z,18.33
2022-09-14T14:57:44.402Z,18.08
2022-09-14T15:00:15.955Z,19.95
2022-09-14T15:02:44.673Z,20.00
2022-09-14T15:05:13.841Z,19.40
2022-09-14T15:07:43.369Z,17.27
2022-09-14T15:10:15.927Z,17.65
2022-09-14T15:12:44.578Z,18.42
2022-09-14T15:15:14.498Z,16.23
2022-09-14T15:17:43.013Z,15.48
2022-09-14T15:20:14.444Z,14.50
2022-09-14T15:22:43.840Z,13.33
2022-09-14T15:25:13.587Z,13.90
2022-09-14T15:27:42.148Z,14.93
2022-09-14T15:30:11.907Z,15.30
2022-09-14T15:32:40.246Z,14.63
2022-09-14T15:35:11.024Z,14.23
2022-09-14T15:37:39.329Z,13.83
2022-09-14T15:40:10.438Z,15.60
2022-09-14T15:42:38.769Z,15.70
2022-09-14T15:45:09.209Z,16.80
2022-09-14T15:47:37.154Z,15.63
2022-09-14T15:50:06.182Z,17.93
2022-09-14T15:52:36.886Z,15.77
2022-09-14T15:55:05.622Z,16.95
2022-09-14T15:57:35.662Z,14.73
2022-09-14T16:00:06.211Z,14.43
2022-09-14T16:02:34.529Z,14.68
2022-09-14T16:05:02.706Z,14.85
2022-09-14T16:07:30.872Z,15.20
2022-09-14T16:09:59.257Z,16.67
2022-09-14T16:12:27.340Z,16.15
2022-09-14T16:14:56.836Z,16.63
2022-09-14T16:17:24.803Z,16.25
2022-09-14T16:19:53.116Z,16.55
2022-09-14T16:22:21.745Z,15.20
2022-09-14T16:24:50.070Z,16.60
2022-09-14T16:27:18.455Z,15.88
2022-09-14T16:29:46.779Z,14.40
2022-09-14T16:32:16.546Z,15.57
2022-09-14T16:34:44.798Z,15.02
2022-09-14T16:37:13.166Z,16.23
2022-09-14T16:39:41.775Z,12.85
2022-09-14T16:42:09.825Z,15.30
2022-09-14T16:44:37.781Z,13.50
2022-09-14T16:47:06.163Z,15.25
2022-09-14T16:49:37.090Z,14.55
2022-09-14T16:52:05.044Z,13.23
2022-09-14T16:54:33.201Z,14.02
2022-09-14T16:57:01.868Z,15.02
2022-09-14T16:59:30.256Z,14.85
2022-09-14T17:01:58.664Z,14.27
2022-09-14T17:04:27.020Z,15.50
2022-09-14T17:06:56.727Z,14.35
2022-09-14T17:09:27.002Z,13.17
2022-09-14T17:11:55.851Z,12.57
2022-09-14T17:14:26.125Z,13.93
2022-09-14T17:16:54.448Z,13.05
2022-09-14T17:19:23.068Z,13.63
2022-09-14T17:21:51.744Z,13.68
2022-09-14T17:24:22.206Z,14.30
2022-09-14T17:26:50.582Z,13.57
2022-09-14T17:29:19.412Z,12.83
2022-09-14T17:31:48.010Z,12.15
2022-09-14T17:34:17.040Z,13.45
2022-09-14T17:36:45.871Z,12.63
2022-09-14T17:39:15.518Z,13.40
2022-09-14T17:41:45.170Z,12.80
2022-09-14T17:44:15.919Z,13.98
2022-09-14T17:46:52.119Z,13.00
2022-09-14T17:49:21.478Z,12.43
2022-09-14T17:51:49.490Z,13.20
2022-09-14T17:54:19.157Z,12.97
2022-09-14T17:56:48.777Z,12.77
2022-09-14T17:59:20.289Z,13.18
2022-09-14T18:01:48.808Z,12.82
2022-09-14T18:04:17.227Z,14.37
2022-09-14T18:06:47.256Z,13.65
2022-09-14T18:09:17.713Z,12.93
2022-09-14T18:11:46.192Z,13.75
2022-09-14T18:14:16.582Z,13.63
2022-09-14T18:16:45.576Z,13.02
2022-09-14T18:19:14.237Z,15.37
2022-09-14T18:21:43.270Z,14.60
2022-09-14T18:24:15.046Z,14.27
2022-09-14T18:26:44.743Z,14.25
2022-09-14T18:29:17.154Z,15.40
2022-09-14T18:31:45.542Z,14.40
2022-09-14T18:34:13.544Z,14.17
2022-09-14T18:36:41.865Z,13.80
2022-09-14T18:39:10.716Z,13.90
2022-09-14T18:41:38.730Z,15.32
2022-09-14T18:44:07.207Z,15.30
2022-09-14T18:46:38.029Z,15.18
2022-09-14T18:49:06.369Z,14.13
2022-09-14T18:51:34.824Z,13.70
2022-09-14T18:54:05.415Z,12.43
2022-09-14T18:56:34.557Z,13.40
2022-09-14T18:59:04.036Z,15.10
2022-09-14T19:01:34.600Z,14.05
2022-09-14T19:04:05.778Z,13.95
2022-09-14T19:06:37.925Z,12.98
2022-09-14T19:09:08.002Z,14.65
2022-09-14T19:11:36.490Z,16.63
2022-09-14T19:14:09.997Z,15.43
2022-09-14T19:16:39.147Z,15.38
2022-09-14T19:19:09.898Z,16.23
2022-09-14T19:21:38.234Z,14.77
2022-09-14T19:24:09.330Z,13.93
2022-09-14T19:26:45.314Z,13.70
2022-09-14T19:29:14.369Z,13.23
2022-09-14T19:31:42.919Z,14.90
2022-09-14T19:34:14.286Z,13.80
2022-09-14T19:36:42.697Z,13.00
2022-09-14T19:39:11.184Z,12.97
2022-09-14T19:41:39.665Z,12.90
2022-09-14T19:44:08.025Z,13.20
2022-09-14T19:46:38.642Z,13.17
2022-09-14T19:49:07.005Z,13.43
2022-09-14T19:51:36.378Z,13.60
2022-09-14T19:54:04.885Z,13.90
2022-09-14T19:56:33.635Z,13.63
2022-09-14T19:59:03.787Z,13.80
2022-09-14T20:01:33.480Z,13.10
2022-09-14T20:04:01.911Z,13.17
2022-09-14T20:06:32.449Z,15.40
2022-09-14T20:09:03.516Z,14.33
2022-09-14T20:11:33.601Z,14.60
2022-09-14T20:14:03.270Z,14.40
2022-09-14T20:16:32.890Z,12.93
2022-09-14T20:19:06.903Z,12.40
2022-09-14T20:21:36.110Z,12.23
2022-09-14T20:24:22.979Z,12.10
2022-09-14T20:26:52.801Z,11.43
2022-09-14T20:29:22.823Z,13.40
2022-09-14T20:31:51.891Z,13.10
2022-09-14T20:34:21.448Z,11.97
2022-09-14T20:36:50.263Z,13.00
2022-09-14T20:39:20.309Z,13.60
2022-09-14T20:41:48.456Z,13.57
2022-09-14T20:44:16.967Z,13.90
2022-09-14T20:46:47.047Z,13.23
2022-09-14T20:49:22.032Z,13.37
2022-09-14T20:51:52.570Z,14.20
2022-09-14T20:54:22.382Z,14.27
2022-09-14T20:56:51.084Z,12.77
2022-09-14T20:59:22.170Z,12.77
2022-09-14T21:01:51.522Z,14.03
2022-09-14T21:04:20.916Z,14.20
2022-09-14T21:06:51.938Z,13.73
2022-09-14T21:09:24.297Z,12.37
2022-09-14T21:11:53.099Z,11.77
2022-09-14T21:14:22.092Z,10.37
2022-09-14T21:16:53.292Z,10.13
2022-09-14T21:19:24.375Z,11.30
2022-09-14T21:21:52.714Z,10.40
2022-09-14T21:24:23.082Z,11.60
2022-09-14T21:26:51.424Z,12.60
2022-09-14T21:29:23.636Z,12.93
2022-09-14T21:31:52.363Z,12.13
2022-09-14T21:34:20.880Z,13.07
2022-09-14T21:36:50.783Z,13.70
2022-09-14T21:39:23.319Z,14.47
2022-09-14T21:41:57.287Z,14.77
2022-09-14T21:44:30.150Z,14.13
2022-09-14T21:46:58.386Z,14.20
2022-09-14T21:49:26.697Z,14.03
2022-09-14T21:51:54.776Z,14.17
2022-09-14T21:54:24.332Z,13.13
2022-09-14T21:56:54.188Z,13.47
2022-09-14T21:59:23.686Z,13.67
2022-09-14T22:01:52.512Z,14.97
2022-09-14T22:04:22.247Z,13.03
2022-09-14T22:06:51.571Z,14.10
2022-09-14T22:09:21.870Z,12.73
2022-09-14T22:11:51.235Z,13.47
2022-09-14T22:14:20.988Z,12.60
2022-09-14T22:16:49.976Z,13.60
2022-09-14T22:19:20.090Z,14.40
2022-09-14T22:21:48.916Z,13.60
2022-09-14T22:24:18.976Z,13.43
2022-09-14T22:26:47.603Z,13.83
2022-09-14T22:29:17.707Z,13.57
2022-09-14T22:31:47.574Z,13.17
2022-09-14T22:34:16.230Z,15.27
2022-09-14T22:36:44.765Z,14.50
2022-09-14T22:39:13.158Z,14.27
2022-09-14T22:41:41.917Z,14.13
2022-09-14T22:44:10.195Z,16.23
2022-09-14T22:46:39.540Z,17.07
2022-09-14T22:49:07.559Z,14.63
2022-09-14T22:51:35.838Z,14.87
2022-09-14T22:54:04.242Z,16.50
2022-09-14T22:56:35.255Z,16.27
2022-09-14T22:59:05.418Z,17.03
2022-09-14T23:01:35.323Z,17.50
2022-09-14T23:04:07.432Z,16.80
2022-09-14T23:06:37.786Z,17.57
2022-09-14T23:09:06.620Z,18.30
2022-09-14T23:11:34.988Z,18.27
2022-09-14T23:14:03.355Z,18.90
2022-09-14T23:16:32.457Z,19.20
2022-09-14T23:19:01.989Z,18.80
2022-09-14T23:21:32.524Z,19.33
2022-09-14T23:24:02.478Z,21.20
2022-09-14T23:26:31.275Z,20.87
2022-09-14T23:29:01.578Z,18.37
2022-09-14T23:31:32.192Z,19.60
2022-09-14T23:34:02.161Z,19.87
2022-09-14T23:36:32.107Z,19.07
2022-09-14T23:39:00.441Z,17.87
2022-09-14T23:41:29.268Z,19.03
2022-09-14T23:43:57.655Z,19.53
2022-09-14T23:46:26.072Z,19.20
2022-09-14T23:48:54.513Z,19.03
2022-09-14T23:51:22.797Z,17.93
2022-09-14T23:53:52.170Z,18.30
2022-09-14T23:56:20.588Z,18.10
2022-09-14T23:58:48.905Z,18.77
